Main page
METAR-TAF:

METAR-TAF

Airports :

Gorna Oryahovitsa Airport

Veliko Tarnovo, Bulgaria

latitude: 43-09N, longitude: 025-36E, elevation: 87 m

Current weather observation

The report was made 32 minutes ago, at 19:30 UTC
Wind 7 kt from the East
Temperature 24°C
Humidity 74%
Pressure 1016 hPa
Visibility 10 km or more

METAR: LBGO 191930Z AUTO 10007KT 9999 NCD 24/19 Q1016

Time: 23:02 (20:02 UTC)

Forecast

The report was made 3 hours and 2 minutes ago, at 17:00 UTC
Forecast valid from 19 at 18 UTC to 20 at 18 UTC
Wind 4 kt from variable directions
Visibility 10 km or more
no clouds below 1500 m and no cumulonimbus
Becoming
from 19 at 18 UTC to 19 at 20 UTC
Wind 10 kt from the South
Becoming
from 20 at 00 UTC to 20 at 02 UTC
Wind 4 kt from variable directions

TAF: LBGO 191700Z 1918/2018 VRB04KT CAVOK BECMG 1918/1920 17010KT BECMG 2000/2002 VRB04KT

Weather observations and forecasts of more than 4000 airports (METAR and TAF reports).

The available stations are represented by yellow and red dots on the map.

Hover mouse over dot to see the name of the station.

Then click to see weather observations and forecasts.

To change the map : click on the green buttons with a black cross to zoom in, on the green button with a dash to zoom out, or on the green arrows for adjacent maps.


METAR-TAF: